This is the latest recevied weather packets stored in our database for station/object DB0LS-15. If no packets are shown the sender has not sent any weather packets the latest 10 day(s).
| Time | Temp. | Humidity | Pressure | Rain* | Wind** | Luminosity | Snow |
|---|---|---|---|---|---|---|---|
| 1777935357 | 16.67° C | 70% | 993.1 hPa | 0 mm | - | - | - |
| 1777934753 | 16.11° C | 73% | 993 hPa | 0 mm | - | - | - |
| 1777934149 | 16.11° C | 76% | 993.1 hPa | 0 mm | - | - | - |
| 1777933545 | 16.11° C | 74% | 993.1 hPa | 0 mm | - | - | - |
| 1777932941 | 16.11° C | 73% | 993.3 hPa | 0 mm | - | - | - |
| 1777932338 | 16.67° C | 71% | 993.4 hPa | 0 mm | - | - | - |
| 1777931734 | 18.33° C | 62% | 993.3 hPa | 0 mm | - | - | - |
| 1777931130 | 18.33° C | 63% | 993.3 hPa | 0 mm | - | - | - |
| 1777930526 | 18.33° C | 63% | 993.2 hPa | 0 mm | - | - | - |
| 1777929922 | 17.78° C | 65% | 993.4 hPa | 0 mm | - | - | - |
| 1777929318 | 18.89° C | 62% | 993.6 hPa | 0 mm | - | - | - |
| 1777928775 | 18.89° C | 61% | 993.4 hPa | 0 mm | - | - | - |
| 1777928171 | 18.89° C | 62% | 993.4 hPa | 0 mm | - | - | - |
| 1777927567 | 18.33° C | 64% | 993.4 hPa | 0 mm | - | - | - |
| 1777926964 | 17.78° C | 66% | 993.4 hPa | 0 mm | - | - | - |
| 1777926360 | 17.78° C | 66% | 993.4 hPa | 0 mm | - | - | - |
| 1777925756 | 17.78° C | 66% | 993.5 hPa | 0 mm | - | - | - |
| 1777925152 | 18.33° C | 65% | 993.3 hPa | 0 mm | - | - | - |
| 1777924549 | 18.33° C | 64% | 993.2 hPa | 0 mm | - | - | - |
| 1777923945 | 18.33° C | 64% | 993.3 hPa | 0 mm | - | - | - |
| 1777923341 | 18.33° C | 64% | 993.4 hPa | 0 mm | - | - | - |
| 1777922737 | 17.78° C | 65% | 993.3 hPa | 0 mm | - | - | - |
| 1777922134 | 18.89° C | 62% | 993.3 hPa | 0 mm | - | - | - |
| 1777921530 | 18.89° C | 62% | 993.3 hPa | 0 mm | - | - | - |
| 1777920926 | 18.89° C | 62% | 993.3 hPa | 0 mm | - | - | - |
* Rain latest hour (hover to see other rain measurements)
** Current wind speed in m/s (hover to see current wind gust speed)